Time;durP1;ratioP1;P1;durP2;ratioP2;P2;SDS_P1;SDS_P2;PMS_P1;PMS_P2;Temp;Humidity;BMP_temperature;BMP_pressure;BME280_temperature;BME280_humidity;BME280_pressure;Samples;Min_cycle;Max_cycle;Signal;HPM_P1;HPM_P2
2022/01/27 00:05:16;;;;;;;49.10;44.70;;;;;;;-0.17;92.31;98496.98;109682;1273;22424;-73
2022/01/27 00:08:03;;;;;;;45.40;40.80;;;;;;;-0.18;92.35;98501.35;109665;1273;22811;-73
2022/01/27 00:13:13;;;;;;;50.80;46.20;;;;;;;-0.19;92.18;98507.39;109675;1273;22471;-76
2022/01/27 00:15:48;;;;;;;48.40;43.70;;;;;;;-0.20;92.23;98516.48;109693;1273;22465;-77
2022/01/27 00:18:18;;;;;;;46.80;42.30;;;;;;;-0.23;92.42;98517.08;109673;1273;22499;-73
2022/01/27 00:20:48;;;;;;;45.30;41.20;;;;;;;-0.20;92.20;98517.05;109670;1274;22489;-73
2022/01/27 00:23:22;;;;;;;41.70;37.90;;;;;;;-0.18;92.29;98515.73;109689;1273;22464;-70
2022/01/27 00:25:54;;;;;;;46.80;42.50;;;;;;;-0.18;92.12;98510.23;109689;1273;22463;-71
2022/01/27 00:28:22;;;;;;;42.30;38.30;;;;;;;-0.20;92.17;98511.88;109706;1273;23181;-70
2022/01/27 00:30:50;;;;;;;44.60;40.60;;;;;;;-0.23;92.16;98498.63;109688;1274;22563;-75
2022/01/27 00:33:19;;;;;;;42.30;38.40;;;;;;;-0.24;92.42;98495.52;109681;1274;22477;-74
2022/01/27 00:35:48;;;;;;;42.70;38.70;;;;;;;-0.23;92.36;98493.40;109688;1273;22468;-73
2022/01/27 00:38:16;;;;;;;43.50;39.60;;;;;;;-0.20;92.19;98498.52;109659;1274;22492;-72
2022/01/27 00:40:44;;;;;;;42.50;38.00;;;;;;;-0.19;92.08;98506.13;109464;1273;138241;-72
2022/01/27 00:43:12;;;;;;;42.60;38.60;;;;;;;-0.23;92.19;98499.96;109669;1273;22495;-77
2022/01/27 00:45:41;;;;;;;38.50;34.80;;;;;;;-0.25;92.31;98496.77;109675;1273;22497;-75
2022/01/27 00:48:10;;;;;;;37.00;33.40;;;;;;;-0.25;92.21;98502.54;109668;1273;22442;-74
2022/01/27 00:50:40;;;;;;;41.90;38.10;;;;;;;-0.27;92.33;98501.38;109687;1273;23223;-72
2022/01/27 00:53:30;;;;;;;40.50;36.70;;;;;;;-0.27;92.29;98498.23;109655;1272;22566;-73
2022/01/27 00:56:10;;;;;;;36.10;32.90;;;;;;;-0.31;92.18;98490.97;109680;1274;22538;-71
2022/01/27 01:01:12;;;;;;;40.60;36.80;;;;;;;-0.27;92.17;98485.73;109667;1274;22583;-70
2022/01/27 01:03:47;;;;;;;39.60;36.10;;;;;;;-0.26;92.28;98486.66;109674;1273;23216;-72
2022/01/27 01:09:50;;;;;;;37.70;33.80;;;;;;;-0.28;92.24;98476.92;109667;1274;23333;-71
2022/01/27 01:14:56;;;;;;;43.10;39.00;;;;;;;-0.27;92.28;98486.86;109673;1273;22185;-72
2022/01/27 01:34:11;;;;;;;39.80;35.90;;;;;;;-0.27;92.26;98462.90;109581;1274;23144;-73
2022/01/27 01:36:55;;;;;;;;;;;;;;;-0.22;92.16;98470.42;109532;1274;22515;-74
2022/01/27 01:39:33;;;;;;;42.00;37.90;;;;;;;-0.21;92.07;98474.73;109667;1274;22476;-74
2022/01/27 01:42:05;;;;;;;46.90;42.50;;;;;;;-0.23;91.99;98480.70;109679;1273;22761;-73
2022/01/27 01:44:34;;;;;;;44.30;40.20;;;;;;;-0.24;92.21;98478.34;109653;1274;22491;-73
2022/01/27 01:47:05;;;;;;;44.50;40.20;;;;;;;-0.22;92.17;98463.70;109675;1274;22483;-74
2022/01/27 01:49:34;;;;;;;42.70;38.50;;;;;;;-0.20;92.05;98457.69;109693;1274;22447;-73
2022/01/27 01:52:06;;;;;;;46.50;41.80;;;;;;;-0.19;91.83;98450.13;109665;1274;22580;-72
2022/01/27 01:54:37;;;;;;;49.40;44.50;;;;;;;-0.20;91.85;98447.88;109654;1274;22383;-70
2022/01/27 01:57:07;;;;;;;52.50;47.40;;;;;;;-0.21;92.14;98444.45;109670;1274;22427;-70
2022/01/27 01:59:38;;;;;;;49.00;44.50;;;;;;;-0.20;92.27;98444.90;109676;1274;23174;-70
2022/01/27 02:02:08;;;;;;;48.40;43.60;;;;;;;-0.21;92.22;98448.04;109671;1274;22512;-69
2022/01/27 02:04:37;;;;;;;46.20;41.80;;;;;;;-0.22;92.03;98446.29;109692;1272;23091;-71
2022/01/27 02:07:33;;;;;;;47.40;43.00;;;;;;;-0.21;92.08;98443.56;109663;1272;22452;-70
2022/01/27 02:10:18;;;;;;;49.60;45.10;;;;;;;-0.21;92.08;98446.91;109671;1273;22440;-71
2022/01/27 02:18:29;;;;;;;45.20;40.80;;;;;;;-0.27;92.23;98447.67;109699;1273;23127;-68
2022/01/27 02:21:01;;;;;;;43.30;39.20;;;;;;;-0.25;92.07;98445.55;109688;1274;23185;-69
2022/01/27 02:23:29;;;;;;;44.60;40.30;;;;;;;-0.28;91.96;98440.23;109675;1274;22553;-70
2022/01/27 02:25:58;;;;;;;47.70;43.50;;;;;;;-0.31;92.05;98436.94;109668;1273;22401;-72
2022/01/27 02:28:28;;;;;;;44.30;40.10;;;;;;;-0.33;92.08;98433.63;109342;1274;454496;-70
2022/01/27 02:30:58;;;;;;;46.10;41.70;;;;;;;-0.35;92.22;98432.63;109519;1274;23728;-70
2022/01/27 02:33:32;;;;;;;43.20;39.30;;;;;;;-0.35;92.04;98425.10;109664;1273;22618;-72
2022/01/27 02:36:03;;;;;;;48.10;43.60;;;;;;;-0.32;92.12;98426.05;109659;1272;22452;-72
2022/01/27 02:38:32;;;;;;;49.70;45.50;;;;;;;-0.32;92.13;98421.77;109677;1274;23177;-72
2022/01/27 02:41:03;;;;;;;54.40;49.80;;;;;;;-0.35;91.98;98422.35;109674;1273;23012;-71
2022/01/27 02:43:31;;;;;;;52.40;47.80;;;;;;;-0.38;92.09;98422.30;109668;1272;22469;-73
2022/01/27 02:46:08;;;;;;;47.00;42.80;;;;;;;-0.39;92.14;98421.94;109682;1273;22407;-72
2022/01/27 02:48:37;;;;;;;43.10;39.30;;;;;;;-0.38;92.17;98424.65;109687;1274;22562;-72
2022/01/27 02:51:07;;;;;;;46.90;43.00;;;;;;;-0.38;92.00;98418.48;109665;1273;23244;-72
2022/01/27 02:53:38;;;;;;;51.40;47.00;;;;;;;-0.39;92.12;98423.56;109675;1273;22455;-71
2022/01/27 02:56:07;;;;;;;45.00;41.00;;;;;;;-0.42;92.14;98426.12;109684;1271;22354;-71
2022/01/27 02:58:37;;;;;;;41.90;38.30;;;;;;;-0.45;92.18;98423.81;109673;1274;23143;-70
2022/01/27 03:01:09;;;;;;;44.00;40.10;;;;;;;-0.46;92.14;98423.20;109677;1274;23086;-71
2022/01/27 03:03:40;;;;;;;44.80;41.00;;;;;;;-0.47;92.08;98420.00;109647;1274;22576;-71
2022/01/27 03:06:08;;;;;;;49.60;45.10;;;;;;;-0.47;92.35;98416.82;109689;1273;22350;-70
2022/01/27 03:08:39;;;;;;;49.20;44.70;;;;;;;-0.49;92.34;98414.48;109670;1274;23153;-71
2022/01/27 03:11:15;;;;;;;42.70;38.90;;;;;;;-0.52;92.43;98413.55;109673;1272;22444;-70
2022/01/27 03:13:44;;;;;;;42.00;38.30;;;;;;;-0.51;92.35;98411.07;109648;1274;22360;-70
2022/01/27 03:16:13;;;;;;;43.50;39.40;;;;;;;-0.51;92.28;98413.09;109643;1274;22539;-72
2022/01/27 03:18:41;;;;;;;44.40;40.40;;;;;;;-0.52;92.37;98408.83;109659;1273;22332;-71
2022/01/27 03:21:10;;;;;;;48.70;44.40;;;;;;;-0.53;92.42;98405.17;109682;1273;22443;-72
2022/01/27 03:23:38;;;;;;;43.90;39.80;;;;;;;-0.55;92.55;98403.00;109657;1272;22496;-70
2022/01/27 03:26:06;;;;;;;43.90;39.50;;;;;;;-0.55;92.41;98404.20;109656;1274;22514;-70
2022/01/27 03:28:34;;;;;;;41.80;38.00;;;;;;;-0.52;92.47;98404.30;109681;1273;22548;-71
2022/01/27 03:31:02;;;;;;;42.80;39.10;;;;;;;-0.52;92.42;98403.00;109661;1273;23000;-71
2022/01/27 03:33:30;;;;;;;46.80;42.60;;;;;;;-0.51;92.44;98393.06;109644;1273;22484;-71
2022/01/27 03:35:58;;;;;;;42.80;39.20;;;;;;;-0.51;92.54;98386.58;109585;1274;22518;-71
2022/01/27 03:38:27;;;;;;;42.50;38.80;;;;;;;-0.52;92.61;98382.39;109670;1274;22419;-71
2022/01/27 03:40:55;;;;;;;41.60;37.70;;;;;;;-0.53;92.62;98379.67;109679;1274;22411;-71
2022/01/27 03:43:24;;;;;;;38.30;34.80;;;;;;;-0.51;92.56;98382.23;109682;1273;22253;-72
2022/01/27 03:45:52;;;;;;;40.50;37.00;;;;;;;-0.50;92.36;98389.11;109672;1274;22387;-70
2022/01/27 03:48:20;;;;;;;43.60;39.70;;;;;;;-0.50;92.46;98399.41;109694;1273;23381;-70
2022/01/27 03:50:48;;;;;;;37.90;34.60;;;;;;;-0.54;92.68;98404.20;109670;1274;22414;-71
2022/01/27 03:53:17;;;;;;;36.80;33.50;;;;;;;-0.56;92.62;98397.45;109683;1273;22965;-71
2022/01/27 03:55:46;;;;;;;36.80;33.50;;;;;;;-0.55;92.54;98391.10;109694;1273;22695;-70
2022/01/27 03:58:14;;;;;;;32.60;29.70;;;;;;;-0.55;92.67;98398.02;109699;1274;23141;-71
2022/01/27 04:00:42;;;;;;;39.90;36.20;;;;;;;-0.57;92.51;98404.14;109584;1274;23212;-69
2022/01/27 04:03:14;;;;;;;35.70;32.50;;;;;;;-0.60;92.77;98403.34;109668;1273;22474;-69
2022/01/27 04:05:52;;;;;;;33.00;29.90;;;;;;;-0.63;92.80;98390.34;109666;1274;23000;-69
2022/01/27 04:08:21;;;;;;;30.20;27.60;;;;;;;-0.63;92.55;98390.70;109663;1272;23116;-70
2022/01/27 04:10:50;;;;;;;33.90;30.80;;;;;;;-0.63;92.72;98392.62;109601;1274;22381;-70
2022/01/27 04:13:18;;;;;;;38.70;35.30;;;;;;;-0.65;92.83;98382.65;109663;1272;22522;-70
2022/01/27 04:15:46;;;;;;;35.20;32.20;;;;;;;-0.68;92.85;98380.33;109671;1272;23275;-69
2022/01/27 04:18:14;;;;;;;40.00;36.30;;;;;;;-0.72;92.86;98381.36;109593;1274;23242;-69
2022/01/27 04:20:42;;;;;;;31.50;28.80;;;;;;;-0.73;92.73;98374.84;109678;1273;23115;-69
2022/01/27 04:23:11;;;;;;;34.70;31.50;;;;;;;-0.70;92.81;98371.91;109669;1272;22476;-70
2022/01/27 04:25:39;;;;;;;36.70;33.50;;;;;;;-0.70;92.94;98372.23;109670;1273;22466;-70
2022/01/27 04:28:11;;;;;;;32.20;29.30;;;;;;;-0.70;93.03;98368.36;109672;1273;22440;-69
2022/01/27 04:30:40;;;;;;;32.60;29.60;;;;;;;-0.71;92.94;98367.64;109669;1273;23325;-71
2022/01/27 04:33:08;;;;;;;30.70;27.90;;;;;;;-0.72;92.92;98369.42;109674;1274;22587;-69
2022/01/27 04:35:42;;;;;;;28.00;25.50;;;;;;;-0.71;93.09;98368.33;109689;1272;22368;-70
2022/01/27 04:43:34;;;;;;;31.40;28.50;;;;;;;-0.68;93.21;98361.39;109682;1273;22344;-70
2022/01/27 04:46:14;;;;;;;31.40;28.60;;;;;;;-0.72;93.27;98356.39;109681;1274;22420;-71
2022/01/27 04:48:48;;;;;;;32.30;29.50;;;;;;;-0.71;93.05;98348.74;109601;1274;22499;-71
2022/01/27 04:51:19;;;;;;;31.00;28.30;;;;;;;-0.70;93.27;98345.65;109698;1273;22477;-71
2022/01/27 04:53:58;;;;;;;32.40;29.70;;;;;;;-0.69;93.02;98351.37;109675;1272;22495;-71
2022/01/27 04:56:28;;;;;;;40.90;37.40;;;;;;;-0.70;93.25;98354.60;109663;1273;23053;-72
2022/01/27 04:58:58;;;;;;;37.50;34.00;;;;;;;-0.72;93.22;98350.27;109677;1273;22417;-71
2022/01/27 05:01:33;;;;;;;33.60;30.40;;;;;;;-0.72;93.21;98348.98;109687;1273;22480;-69
2022/01/27 05:04:08;;;;;;;30.00;27.30;;;;;;;-0.74;93.45;98351.20;109680;1274;22428;-68
2022/01/27 05:06:36;;;;;;;36.60;33.30;;;;;;;-0.73;93.38;98347.73;109669;1274;22284;-70
2022/01/27 05:09:05;;;;;;;33.80;31.00;;;;;;;-0.74;93.44;98349.55;109596;1274;22547;-69
2022/01/27 05:11:36;;;;;;;36.10;32.90;;;;;;;-0.77;93.71;98351.06;109648;1272;22466;-70
2022/01/27 05:14:16;;;;;;;30.80;28.10;;;;;;;-0.76;93.69;98351.27;109699;1273;23152;-70
2022/01/27 05:16:44;;;;;;;31.70;28.80;;;;;;;-0.76;93.64;98352.41;109699;1273;22421;-70
2022/01/27 05:19:12;;;;;;;34.30;31.30;;;;;;;-0.74;93.61;98344.57;109680;1274;23088;-70
2022/01/27 05:21:41;;;;;;;37.30;33.90;;;;;;;-0.74;93.57;98346.23;109666;1274;22513;-70
2022/01/27 05:24:10;;;;;;;37.70;34.10;;;;;;;-0.74;93.73;98344.24;109657;1272;22364;-70
2022/01/27 05:26:38;;;;;;;38.50;35.00;;;;;;;-0.76;93.76;98343.41;109646;1274;22584;-71
2022/01/27 05:29:10;;;;;;;37.80;34.30;;;;;;;-0.75;93.62;98342.02;109664;1272;22547;-70
2022/01/27 05:31:38;;;;;;;38.50;34.60;;;;;;;-0.72;93.71;98338.33;109679;1273;23336;-70
2022/01/27 05:34:07;;;;;;;36.40;32.90;;;;;;;-0.70;93.49;98329.04;109647;1273;22550;-70
2022/01/27 05:36:35;;;;;;;39.70;36.10;;;;;;;-0.66;93.51;98322.41;109654;1272;23129;-70
2022/01/27 05:39:03;;;;;;;40.70;37.10;;;;;;;-0.62;93.54;98312.19;109679;1274;23162;-69
2022/01/27 05:41:31;;;;;;;42.00;38.00;;;;;;;-0.62;93.37;98306.58;109656;1274;22444;-69
2022/01/27 05:43:59;;;;;;;39.40;35.90;;;;;;;-0.62;93.30;98308.84;109595;1274;23182;-70
2022/01/27 05:46:27;;;;;;;38.20;34.80;;;;;;;-0.62;93.24;98309.19;109666;1272;22447;-71
2022/01/27 05:48:56;;;;;;;38.80;35.30;;;;;;;-0.61;93.26;98312.27;109702;1273;22496;-71
2022/01/27 05:51:24;;;;;;;43.80;39.80;;;;;;;-0.59;93.34;98314.98;109678;1272;22459;-69
2022/01/27 05:53:52;;;;;;;47.00;42.80;;;;;;;-0.59;93.05;98309.94;109598;1273;22437;-71
2022/01/27 05:56:20;;;;;;;51.30;46.60;;;;;;;-0.59;93.16;98300.94;109684;1273;22401;-70
2022/01/27 05:58:48;;;;;;;48.90;44.50;;;;;;;-0.59;93.27;98296.90;109675;1272;22501;-70
2022/01/27 06:01:17;;;;;;;43.00;39.20;;;;;;;-0.59;93.27;98291.41;109643;1274;22528;-71
2022/01/27 06:03:45;;;;;;;41.90;38.20;;;;;;;-0.59;93.11;98295.30;109586;1274;22496;-70
2022/01/27 06:06:13;;;;;;;44.00;40.00;;;;;;;-0.55;93.11;98303.10;109657;1273;23163;-70
2022/01/27 06:08:41;;;;;;;46.50;42.20;;;;;;;-0.54;93.16;98296.25;109668;1273;22443;-72
2022/01/27 06:11:09;;;;;;;47.10;42.80;;;;;;;-0.54;93.09;98284.40;109661;1273;22413;-72
2022/01/27 06:13:37;;;;;;;43.60;39.40;;;;;;;-0.55;93.13;98279.18;109664;1274;22343;-72
2022/01/27 06:16:10;;;;;;;40.30;36.80;;;;;;;-0.55;92.83;98276.30;109663;1274;23161;-72
2022/01/27 06:18:38;;;;;;;41.80;37.90;;;;;;;-0.53;92.96;98277.02;109669;1274;22454;-69
2022/01/27 06:21:07;;;;;;;43.10;39.10;;;;;;;-0.51;93.10;98274.42;109651;1273;23359;-73
2022/01/27 06:23:36;;;;;;;44.40;40.10;;;;;;;-0.49;93.01;98275.30;109680;1273;22456;-74
2022/01/27 06:26:04;;;;;;;53.10;48.10;;;;;;;-0.50;92.93;98283.79;109678;1274;22415;-73
2022/01/27 06:28:32;;;;;;;49.70;44.90;;;;;;;-0.51;93.03;98283.27;109650;1274;22548;-72
2022/01/27 06:31:00;;;;;;;45.90;41.60;;;;;;;-0.51;92.87;98282.20;109656;1274;22425;-72
2022/01/27 06:33:28;;;;;;;52.40;47.50;;;;;;;-0.49;92.75;98294.08;109665;1273;23120;-72
2022/01/27 06:35:57;;;;;;;42.80;39.10;;;;;;;-0.45;92.85;98283.86;109668;1274;22360;-70
2022/01/27 06:38:26;;;;;;;45.40;40.90;;;;;;;-0.43;92.88;98248.25;109674;1274;22417;-70
2022/01/27 06:40:54;;;;;;;47.70;43.20;;;;;;;-0.41;92.90;98252.34;109677;1273;22582;-71
2022/01/27 06:43:22;;;;;;;43.20;39.00;;;;;;;-0.40;92.77;98249.16;109664;1272;22755;-71
2022/01/27 06:45:50;;;;;;;43.00;39.00;;;;;;;-0.39;92.86;98262.39;109581;1274;22501;-71
2022/01/27 06:48:18;;;;;;;42.90;38.80;;;;;;;-0.35;92.93;98261.42;109663;1274;22981;-71
2022/01/27 06:50:52;;;;;;;43.10;39.00;;;;;;;-0.30;92.88;98250.73;109670;1272;22537;-71
2022/01/27 06:53:22;;;;;;;46.70;42.30;;;;;;;-0.26;92.75;98244.94;109675;1274;22363;-72
2022/01/27 06:55:51;;;;;;;45.80;41.70;;;;;;;-0.25;92.85;98242.32;109680;1274;22429;-70
2022/01/27 06:58:19;;;;;;;45.20;40.50;;;;;;;-0.25;92.54;98235.96;109584;1274;22427;-69
2022/01/27 07:00:47;;;;;;;39.80;35.70;;;;;;;-0.25;92.58;98240.31;109671;1272;23292;-70
2022/01/27 07:03:16;;;;;;;46.20;41.40;;;;;;;-0.23;92.57;98243.60;109650;1274;22583;-71
2022/01/27 07:05:44;;;;;;;48.20;43.50;;;;;;;-0.21;92.47;98256.38;109660;1274;22534;-70
2022/01/27 07:08:12;;;;;;;48.70;44.10;;;;;;;-0.21;92.19;98258.86;109667;1274;22430;-71
2022/01/27 07:10:40;;;;;;;63.20;54.00;;;;;;;-0.24;92.27;98252.79;109679;1274;23173;-70
2022/01/27 07:13:08;;;;;;;41.20;37.30;;;;;;;-0.26;92.14;98254.68;109665;1273;22575;-71
2022/01/27 07:15:36;;;;;;;45.40;41.10;;;;;;;-0.27;92.06;98258.67;109670;1274;22442;-71
2022/01/27 07:18:04;;;;;;;44.20;39.50;;;;;;;-0.26;91.96;98258.26;109670;1273;22430;-71
2022/01/27 07:20:32;;;;;;;41.50;37.70;;;;;;;-0.23;91.82;98253.23;109665;1273;22352;-70
2022/01/27 07:23:00;;;;;;;41.10;37.20;;;;;;;-0.25;92.10;98251.23;109673;1273;22604;-72
2022/01/27 07:25:28;;;;;;;38.30;34.80;;;;;;;-0.26;91.96;98247.50;109669;1273;22505;-72
2022/01/27 07:27:58;;;;;;;37.10;33.70;;;;;;;-0.27;91.61;98247.68;109660;1273;22530;-72
2022/01/27 07:30:27;;;;;;;35.10;31.70;;;;;;;-0.26;91.73;98246.29;109557;1274;138951;-73
2022/01/27 07:32:55;;;;;;;35.60;32.30;;;;;;;-0.23;91.73;98241.91;109647;1274;22440;-74
2022/01/27 07:35:24;;;;;;;38.20;34.80;;;;;;;-0.24;91.72;98240.92;109675;1274;22468;-73
2022/01/27 07:37:52;;;;;;;33.80;30.80;;;;;;;-0.25;91.63;98234.21;109681;1273;22665;-71
2022/01/27 07:40:20;;;;;;;35.90;32.20;;;;;;;-0.24;91.58;98232.98;109677;1272;22388;-75
2022/01/27 07:43:10;;;;;;;34.50;31.10;;;;;;;-0.22;91.21;98232.67;109672;1274;22588;-75
2022/01/27 07:45:38;;;;;;;38.00;34.40;;;;;;;-0.17;91.25;98222.64;109653;1273;22441;-73
2022/01/27 07:48:07;;;;;;;36.50;33.10;;;;;;;-0.14;91.41;98213.08;109660;1274;23126;-73
2022/01/27 07:50:35;;;;;;;41.00;37.00;;;;;;;-0.11;91.59;98214.98;109667;1274;22448;-76
2022/01/27 07:53:03;;;;;;;37.50;34.00;;;;;;;-0.07;91.75;98211.16;109678;1273;22579;-75
2022/01/27 07:55:31;;;;;;;36.70;33.20;;;;;;;-0.04;91.28;98208.29;109689;1273;23132;-75
2022/01/27 07:57:59;;;;;;;34.50;31.40;;;;;;;-0.01;91.29;98199.95;109687;1273;23320;-73
2022/01/27 08:00:27;;;;;;;36.20;33.00;;;;;;;0.06;91.42;98200.48;109688;1273;23661;-72
2022/01/27 08:02:55;;;;;;;40.20;36.70;;;;;;;0.08;90.78;98197.15;109653;1274;22595;-73
2022/01/27 08:05:24;;;;;;;47.10;42.70;;;;;;;0.08;91.14;98192.95;109618;1273;22530;-73
2022/01/27 08:07:52;;;;;;;49.90;45.20;;;;;;;0.07;90.80;98195.21;109685;1272;22495;-73
2022/01/27 08:10:20;;;;;;;39.20;35.70;;;;;;;0.07;90.64;98191.98;109544;1274;138674;-72
2022/01/27 08:12:48;;;;;;;47.90;43.60;;;;;;;0.09;90.45;98185.55;109669;1273;22595;-72
2022/01/27 08:15:19;;;;;;;46.90;42.80;;;;;;;0.09;90.62;98178.83;109667;1273;23276;-72
2022/01/27 08:17:47;;;;;;;50.00;45.50;;;;;;;0.08;90.35;98182.26;109664;1272;22494;-72
2022/01/27 08:20:15;;;;;;;48.50;44.10;;;;;;;0.07;90.75;98180.38;109669;1273;22335;-73
2022/01/27 08:22:44;;;;;;;55.20;50.00;;;;;;;0.07;90.53;98170.38;109680;1274;22459;-71
2022/01/27 08:25:12;;;;;;;56.80;51.40;;;;;;;0.10;90.46;98159.38;109673;1273;22460;-71
2022/01/27 08:27:44;;;;;;;60.90;55.10;;;;;;;0.12;90.15;98158.05;109595;1273;22439;-72
2022/01/27 08:30:16;;;;;;;59.90;54.30;;;;;;;0.14;90.69;98156.58;109672;1272;22578;-70
2022/01/27 08:32:48;;;;;;;53.30;48.70;;;;;;;0.18;90.22;98160.77;109593;1273;22489;-71
2022/01/27 08:35:19;;;;;;;44.00;40.00;;;;;;;0.17;89.68;98169.06;109682;1274;22448;-70
2022/01/27 08:37:49;;;;;;;34.10;30.80;;;;;;;0.17;89.46;98171.34;109595;1272;23174;-70
2022/01/27 08:40:20;;;;;;;32.70;29.70;;;;;;;0.18;89.30;98164.36;109486;1274;138114;-71
2022/01/27 08:43:07;;;;;;;34.00;30.70;;;;;;;0.22;89.45;98163.35;109651;1274;23706;-72
2022/01/27 08:45:39;;;;;;;33.60;30.30;;;;;;;0.26;89.49;98174.20;109645;1274;22404;-74
2022/01/27 08:48:09;;;;;;;32.60;29.60;;;;;;;0.30;89.61;98174.16;109654;1272;23269;-72
2022/01/27 08:50:38;;;;;;;29.70;26.90;;;;;;;0.36;89.29;98174.67;109620;1274;22515;-71
2022/01/27 08:53:06;;;;;;;33.20;30.20;;;;;;;0.42;88.82;98168.63;109646;1274;22458;-73
2022/01/27 08:55:34;;;;;;;33.00;30.10;;;;;;;0.42;88.31;98176.42;109657;1274;22440;-70
2022/01/27 08:58:02;;;;;;;30.10;27.50;;;;;;;0.38;88.27;98175.33;109655;1274;22459;-71
2022/01/27 09:00:30;;;;;;;30.10;27.40;;;;;;;0.34;87.76;98172.77;109656;1274;22492;-72
2022/01/27 09:03:04;;;;;;;32.90;29.80;;;;;;;0.33;88.26;98166.48;109628;1273;22588;-70
2022/01/27 09:05:35;;;;;;;33.00;29.80;;;;;;;0.34;88.57;98165.10;109644;1274;22341;-69
2022/01/27 09:08:04;;;;;;;34.20;31.10;;;;;;;0.39;88.03;98170.78;109551;1274;23217;-70
2022/01/27 09:10:33;;;;;;;32.70;29.50;;;;;;;0.44;88.20;98171.29;109640;1271;22465;-71
2022/01/27 09:13:57;;;;;;;33.70;30.60;;;;;;;0.48;87.59;98173.77;109640;1274;22442;-69
2022/01/27 09:16:29;;;;;;;32.10;29.10;;;;;;;0.47;87.58;98161.23;109661;1274;22401;-69
2022/01/27 09:19:14;;;;;;;30.70;27.90;;;;;;;0.46;87.07;98171.27;109652;1274;22415;-69
2022/01/27 09:21:46;;;;;;;30.00;27.20;;;;;;;0.41;86.46;98167.30;109557;1274;23157;-70
2022/01/27 09:24:17;;;;;;;31.10;28.20;;;;;;;0.42;87.10;98165.52;109633;1274;22457;-70
2022/01/27 09:29:19;;;;;;;33.80;30.80;;;;;;;0.49;87.55;98148.66;109658;1274;22471;-69
2022/01/27 09:31:48;;;;;;;29.70;26.80;;;;;;;0.50;86.68;98147.84;109630;1274;23177;-69
2022/01/27 09:34:19;;;;;;;28.10;25.40;;;;;;;0.48;86.41;98149.58;109359;1274;138240;-68
2022/01/27 09:36:49;;;;;;;28.30;25.70;;;;;;;0.44;85.37;98144.20;109631;1274;22419;-71
2022/01/27 09:39:19;;;;;;;31.30;28.30;;;;;;;0.43;85.73;98139.77;109644;1274;22407;-68
2022/01/27 09:41:52;;;;;;;33.60;30.50;;;;;;;0.41;85.57;98140.30;109580;1274;23232;-69
2022/01/27 09:44:28;;;;;;;33.10;30.00;;;;;;;0.38;85.98;98133.80;109645;1274;22391;-69
2022/01/27 09:47:00;;;;;;;33.30;30.10;;;;;;;0.42;86.66;98120.39;109552;1274;23154;-68
2022/01/27 09:49:34;;;;;;;33.40;30.00;;;;;;;0.48;86.84;98111.31;109662;1274;22430;-68
2022/01/27 09:52:04;;;;;;;38.70;34.90;;;;;;;0.53;86.86;98107.94;109628;1273;22488;-67
2022/01/27 09:54:34;;;;;;;28.70;25.90;;;;;;;0.55;86.94;98102.19;109652;1274;22445;-69
2022/01/27 09:57:04;;;;;;;31.20;28.10;;;;;;;0.52;85.60;98099.42;109645;1274;22628;-69
2022/01/27 09:59:34;;;;;;;31.60;28.40;;;;;;;0.53;86.61;98090.52;109639;1274;22487;-68
2022/01/27 10:02:07;;;;;;;27.80;25.30;;;;;;;0.56;86.55;98080.03;109523;1274;22561;-68
2022/01/27 10:04:45;;;;;;;27.30;24.70;;;;;;;0.56;85.39;98077.61;109523;1274;137881;-69
2022/01/27 10:07:18;;;;;;;32.60;29.50;;;;;;;0.53;85.47;98068.11;109658;1274;22462;-70
2022/01/27 10:09:57;;;;;;;32.00;29.00;;;;;;;0.52;86.05;98062.92;109650;1274;23908;-68
2022/01/27 10:12:29;;;;;;;25.30;23.00;;;;;;;0.53;85.82;98050.66;109641;1274;22550;-68
2022/01/27 10:15:02;;;;;;;31.50;28.20;;;;;;;0.54;85.33;98048.29;109526;1274;23762;-70
2022/01/27 10:17:34;;;;;;;27.20;24.80;;;;;;;0.52;84.53;98037.76;109637;1274;22426;-70
2022/01/27 10:20:15;;;;;;;28.40;25.70;;;;;;;0.52;85.00;98030.26;109623;1274;22408;-69
2022/01/27 10:23:21;;;;;;;33.20;29.90;;;;;;;0.50;84.78;98028.36;109505;1274;22508;-70
2022/01/27 10:25:55;;;;;;;24.50;22.20;;;;;;;0.50;84.46;98043.63;109656;1274;22434;-70
2022/01/27 10:28:35;;;;;;;31.00;28.10;;;;;;;0.48;83.85;98039.25;109660;1274;22478;-71
2022/01/27 10:31:07;;;;;;;33.60;30.60;;;;;;;0.44;83.68;98038.25;109536;1274;23526;-71
2022/01/27 10:33:59;;;;;;;29.10;26.40;;;;;;;0.39;83.36;98035.71;109528;1274;22602;-71
2022/01/27 10:36:32;;;;;;;25.00;22.70;;;;;;;0.36;83.12;98020.56;109646;1274;23657;-71
2022/01/27 10:39:20;;;;;;;42.70;38.90;;;;;;;0.36;82.93;98005.56;109637;1274;22712;-70
2022/01/27 10:42:09;;;;;;;43.40;39.50;;;;;;;0.38;82.82;98010.70;109660;1271;22466;-71
2022/01/27 10:44:47;;;;;;;33.40;30.10;;;;;;;0.43;83.39;98014.90;109638;1274;22458;-69
2022/01/27 10:47:30;;;;;;;35.00;31.30;;;;;;;0.44;82.76;98022.88;109624;1274;22392;-71
2022/01/27 10:50:04;;;;;;;84.80;74.70;;;;;;;0.45;82.24;98032.93;109658;1274;22535;-70
2022/01/27 10:55:13;;;;;;;31.50;28.40;;;;;;;0.41;81.20;98027.91;109636;1274;22494;-71
2022/01/27 10:57:49;;;;;;;30.00;26.70;;;;;;;0.38;81.99;98012.30;109643;1274;22467;-70
2022/01/27 11:00:26;;;;;;;35.90;29.50;;;;;;;0.35;81.84;98000.41;109678;1274;22455;-72
2022/01/27 11:03:05;;;;;;;26.50;23.80;;;;;;;0.34;82.30;97997.84;109654;1274;22414;-71
2022/01/27 11:05:45;;;;;;;25.50;23.00;;;;;;;0.39;81.70;98000.66;109639;1274;22514;-71
2022/01/27 11:08:15;;;;;;;25.20;22.60;;;;;;;0.38;81.20;97995.77;109646;1274;22449;-72
2022/01/27 11:10:49;;;;;;;28.70;25.60;;;;;;;0.38;82.29;98001.89;109677;1274;23156;-73
2022/01/27 11:13:23;;;;;;;23.90;21.60;;;;;;;0.37;81.89;98004.48;109515;1274;22413;-74
2022/01/27 11:15:57;;;;;;;26.50;23.80;;;;;;;0.39;82.30;97994.58;109667;1274;23424;-73
2022/01/27 11:18:28;;;;;;;23.60;21.30;;;;;;;0.40;81.57;97982.98;109633;1274;23143;-71
2022/01/27 11:21:08;;;;;;;22.10;20.10;;;;;;;0.39;81.26;97989.05;109639;1274;22462;-73
2022/01/27 11:26:16;;;;;;;29.70;26.70;;;;;;;0.31;81.19;97959.02;109647;1274;22473;-69
2022/01/27 11:28:48;;;;;;;47.40;42.50;;;;;;;0.30;81.30;97961.98;109654;1274;22463;-70
2022/01/27 11:31:30;;;;;;;27.20;24.40;;;;;;;0.33;81.74;97952.56;109515;1274;23119;-71
2022/01/27 11:34:07;;;;;;;23.30;21.20;;;;;;;0.35;81.70;97956.71;109535;1274;137818;-71
2022/01/27 11:36:58;;;;;;;27.60;24.90;;;;;;;0.33;81.14;97948.36;109664;1274;22407;-71
2022/01/27 11:39:53;;;;;;;21.50;19.40;;;;;;;0.28;80.82;97943.76;109651;1274;22413;-70
2022/01/27 11:42:40;;;;;;;21.90;19.90;;;;;;;0.28;80.62;97954.08;109507;1274;22440;-71
2022/01/27 11:45:23;;;;;;;21.40;19.30;;;;;;;0.30;80.35;97972.39;109635;1274;22431;-69
2022/01/27 11:47:59;;;;;;;22.30;20.10;;;;;;;0.26;80.27;97949.38;109654;1274;22390;-70
2022/01/27 11:50:37;;;;;;;25.50;23.10;;;;;;;0.26;80.52;97948.20;109521;1274;22422;-69
2022/01/27 11:53:11;;;;;;;28.50;25.80;;;;;;;0.26;80.74;97947.25;109512;1274;22427;-72
2022/01/27 11:55:44;;;;;;;57.50;51.70;;;;;;;0.28;80.12;97934.35;109654;1273;23105;-72
2022/01/27 11:58:16;;;;;;;32.70;29.80;;;;;;;0.30;81.06;97921.80;109673;1274;22436;-70
2022/01/27 12:01:10;;;;;;;26.80;24.20;;;;;;;0.29;81.19;97915.60;109655;1274;22461;-71
2022/01/27 12:04:25;;;;;;;20.70;18.80;;;;;;;0.30;81.10;97917.44;109649;1274;22277;-69
2022/01/27 12:06:55;;;;;;;23.50;21.40;;;;;;;0.31;80.95;97907.49;108534;1284;139172;-72
2022/01/27 12:09:29;;;;;;;20.80;18.90;;;;;;;0.31;80.70;97906.11;108677;1283;23096;-71
2022/01/27 12:12:10;;;;;;;26.30;24.00;;;;;;;0.31;80.58;97904.80;108581;1283;22524;-70
2022/01/27 12:14:42;;;;;;;35.10;31.60;;;;;;;0.31;81.27;97895.26;108653;1283;22592;-70
2022/01/27 12:17:12;;;;;;;86.60;61.20;;;;;;;0.33;81.42;97888.52;108656;1284;22601;-70
2022/01/27 12:19:56;;;;;;;44.40;40.10;;;;;;;0.36;80.70;97887.51;108660;1284;23251;-72
2022/01/27 12:22:41;;;;;;;30.50;27.40;;;;;;;0.36;80.14;97879.35;108653;1283;22469;-72
2022/01/27 12:25:12;;;;;;;32.20;29.40;;;;;;;0.33;79.91;97868.31;108664;1283;22389;-71